Time;durP1;ratioP1;P1;durP2;ratioP2;P2;SDS_P1;SDS_P2;PMS_P1;PMS_P2;Temp;Humidity;BMP_temperature;BMP_pressure;BME280_temperature;BME280_humidity;BME280_pressure;Samples;Min_cycle;Max_cycle;Signal;HPM_P1;HPM_P2
2022/12/22 03:27:05;;;;;;;1.92;1.23;;;17.90;65.30;;;;;;7406961;19;19925;-67
2022/12/22 03:29:34;;;;;;;2.03;1.10;;;17.90;65.30;;;;;;7400656;19;20350;-66
2022/12/22 03:32:06;;;;;;;1.35;1.02;;;17.80;65.20;;;;;;7405913;19;19926;-66
2022/12/22 03:34:35;;;;;;;1.95;1.23;;;17.80;65.20;;;;;;7409643;19;19926;-66
2022/12/22 03:37:04;;;;;;;1.73;1.10;;;17.90;65.30;;;;;;7399324;19;19933;-66
2022/12/22 03:39:33;;;;;;;1.38;1.08;;;17.90;65.30;;;;;;7408990;19;19947;-66
2022/12/22 03:47:27;;;;;;;2.00;1.00;;;17.80;65.20;;;;;;7408278;19;19926;-66
2022/12/22 03:49:57;;;;;;;1.58;1.15;;;17.80;65.20;;;;;;7409468;19;19923;-66
2022/12/22 03:52:26;;;;;;;1.45;0.93;;;17.80;65.20;;;;;;7403428;19;20499;-67
2022/12/22 03:54:55;;;;;;;1.88;1.00;;;17.90;65.30;;;;;;7404766;19;19951;-66
2022/12/22 03:57:24;;;;;;;1.50;1.20;;;17.80;65.20;;;;;;7407655;19;20014;-66
2022/12/22 03:59:53;;;;;;;1.92;0.98;;;17.80;65.20;;;;;;7403615;19;19918;-66
2022/12/22 04:02:21;;;;;;;1.95;0.90;;;17.80;65.30;;;;;;7404953;19;19911;-66
2022/12/22 04:04:53;;;;;;;1.83;0.93;;;17.80;65.30;;;;;;7405218;19;20357;-66
2022/12/22 04:07:30;;;;;;;1.10;0.30;;;17.80;65.20;;;;;;7397857;19;20909;-66
2022/12/22 04:15:27;;;;;;;2.13;1.00;;;17.80;65.30;;;;;;7407851;19;20389;-66
2022/12/22 04:17:56;;;;;;;1.65;0.38;;;17.80;65.90;;;;;;7404837;19;20634;-65
2022/12/22 04:20:29;;;;;;;1.50;1.08;;;17.80;65.30;;;;;;7407079;19;19970;-65
2022/12/22 04:22:58;;;;;;;1.50;0.80;;;17.80;65.20;;;;;;7406407;19;19922;-66
2022/12/22 04:25:28;;;;;;;;;;;17.80;65.20;;;;;;7401805;19;19926;-66
2022/12/22 04:27:57;;;;;;;2.50;1.23;;;17.80;65.20;;;;;;7392658;19;19922;-66
2022/12/22 04:30:26;;;;;;;1.80;1.23;;;17.80;65.30;;;;;;7407288;19;20382;-66
2022/12/22 04:32:55;;;;;;;1.60;0.35;;;17.80;65.30;;;;;;7406243;19;20293;-66
2022/12/22 04:35:27;;;;;;;1.95;1.30;;;17.80;65.80;;;;;;7408024;19;20469;-67
2022/12/22 04:37:57;;;;;;;1.23;0.88;;;17.80;65.40;;;;;;7405338;19;19949;-66
2022/12/22 04:40:26;;;;;;;1.48;1.05;;;17.80;65.40;;;;;;7406331;19;19924;-67
2022/12/22 04:42:55;;;;;;;1.40;0.40;;;17.80;65.30;;;;;;7403831;19;19937;-66
2022/12/22 04:45:24;;;;;;;1.58;1.10;;;17.80;65.40;;;;;;7393540;19;20028;-66
2022/12/22 04:47:54;;;;;;;1.27;0.80;;;17.80;65.90;;;;;;7407332;19;19919;-66
2022/12/22 04:50:23;;;;;;;1.77;1.10;;;17.80;65.30;;;;;;7404077;19;19915;-65
2022/12/22 04:52:59;;;;;;;1.88;1.50;;;17.70;65.30;;;;;;7407052;19;19926;-65
2022/12/22 04:55:28;;;;;;;1.67;1.10;;;17.80;65.30;;;;;;7404201;19;19926;-66
2022/12/22 04:57:57;;;;;;;1.48;0.93;;;17.80;65.40;;;;;;7404901;19;19914;-65
2022/12/22 05:00:26;;;;;;;1.20;0.80;;;17.80;65.40;;;;;;7401787;19;19923;-66
2022/12/22 05:03:15;;;;;;;1.35;0.98;;;17.70;65.30;;;;;;7403538;19;19918;-66
2022/12/22 05:05:44;;;;;;;1.92;1.00;;;17.70;65.30;;;;;;7402977;19;19927;-67
2022/12/22 05:08:16;;;;;;;1.70;0.95;;;17.80;65.90;;;;;;7406931;19;19919;-67
2022/12/22 05:10:45;;;;;;;1.20;0.80;;;17.70;65.30;;;;;;7404295;19;19921;-67
2022/12/22 05:13:14;;;;;;;2.15;1.40;;;17.70;65.30;;;;;;7402051;19;20334;-67
2022/12/22 05:15:45;;;;;;;1.90;1.27;;;17.80;65.30;;;;;;7403240;19;19926;-68
2022/12/22 05:18:14;;;;;;;1.25;0.68;;;17.80;65.30;;;;;;7402481;19;19910;-67
2022/12/22 05:20:43;;;;;;;1.27;0.30;;;17.70;65.30;;;;;;7404029;19;20320;-67
2022/12/22 05:23:11;;;;;;;2.20;1.00;;;17.70;65.30;;;;;;7403231;19;19919;-67
2022/12/22 05:25:43;;;;;;;2.08;1.50;;;17.80;65.40;;;;;;7402179;19;19914;-67
2022/12/22 05:28:12;;;;;;;1.35;0.95;;;17.70;65.30;;;;;;7400957;19;19922;-66
2022/12/22 05:30:42;;;;;;;1.10;0.30;;;17.70;65.30;;;;;;7404197;19;20306;-67
2022/12/22 05:33:12;;;;;;;1.92;1.25;;;17.70;65.30;;;;;;7401531;19;19945;-66
2022/12/22 05:35:43;;;;;;;1.63;1.00;;;17.70;65.30;;;;;;7406427;19;19927;-66
2022/12/22 05:38:12;;;;;;;1.50;0.95;;;17.70;65.30;;;;;;7402061;19;19940;-66
2022/12/22 05:40:44;;;;;;;1.30;0.88;;;17.70;65.30;;;;;;7400152;19;19945;-68
2022/12/22 05:43:13;;;;;;;1.30;1.20;;;17.70;65.30;;;;;;7396073;19;19923;-66
2022/12/22 05:45:42;;;;;;;1.60;1.02;;;17.70;65.40;;;;;;7401007;19;19911;-65
2022/12/22 05:48:11;;;;;;;1.50;1.10;;;17.70;65.30;;;;;;7404800;19;19922;-66
2022/12/22 05:50:44;;;;;;;1.65;1.42;;;17.70;65.40;;;;;;7411107;19;19923;-66
2022/12/22 05:53:13;;;;;;;1.80;1.17;;;17.70;65.30;;;;;;7408796;19;19919;-65
2022/12/22 05:55:45;;;;;;;1.55;1.17;;;17.70;65.30;;;;;;7408144;19;19922;-64
2022/12/22 05:58:14;;;;;;;1.90;1.05;;;17.70;65.30;;;;;;7410579;19;19970;-65
2022/12/22 06:00:42;;;;;;;1.55;0.85;;;17.70;65.40;;;;;;7396187;19;19925;-66
2022/12/22 06:03:12;;;;;;;1.60;0.95;;;17.70;65.30;;;;;;7411082;19;19922;-67
2022/12/22 06:05:42;;;;;;;1.52;1.02;;;17.70;65.30;;;;;;7411049;19;20349;-67
2022/12/22 06:08:11;;;;;;;1.50;1.08;;;17.70;65.30;;;;;;7412078;19;19953;-67
2022/12/22 06:10:40;;;;;;;1.60;1.05;;;17.70;65.30;;;;;;7407681;19;20325;-66
2022/12/22 06:13:12;;;;;;;1.75;1.65;;;17.70;65.40;;;;;;7408275;19;19922;-66
2022/12/22 06:15:41;;;;;;;1.45;1.23;;;17.70;65.30;;;;;;7407629;19;19915;-69
2022/12/22 06:18:10;;;;;;;1.50;1.00;;;17.70;65.30;;;;;;7407669;19;19922;-67
2022/12/22 06:20:40;;;;;;;0.88;0.30;;;17.70;65.70;;;;;;7411685;19;20246;-67
2022/12/22 06:23:09;;;;;;;1.55;1.15;;;17.70;65.30;;;;;;7405693;19;19966;-66
2022/12/22 06:25:38;;;;;;;1.55;1.08;;;17.70;65.30;;;;;;7406935;19;20349;-65
2022/12/22 06:28:07;;;;;;;1.50;1.02;;;17.70;65.30;;;;;;7406866;19;19922;-65
2022/12/22 06:30:39;;;;;;;1.55;0.65;;;17.70;65.40;;;;;;7407840;19;20303;-65
2022/12/22 06:33:08;;;;;;;1.50;0.88;;;17.70;65.30;;;;;;7408048;19;19940;-65
2022/12/22 06:35:38;;;;;;;1.90;0.95;;;17.70;65.30;;;;;;7400620;19;19923;-67
2022/12/22 06:38:08;;;;;;;2.03;0.63;;;17.70;65.40;;;;;;7404769;19;20343;-66
2022/12/22 06:40:38;;;;;;;1.75;1.00;;;17.60;65.90;;;;;;7409681;19;20348;-66
2022/12/22 06:43:07;;;;;;;1.55;1.45;;;17.70;65.40;;;;;;7407597;19;19922;-64
2022/12/22 11:13:54;;;;;;;6.20;0.65;;;18.40;65.80;;;;;;7421455;19;20341;-70
2022/12/22 11:16:31;;;;;;;7.20;1.00;;;18.50;65.90;;;;;;7343801;19;19918;-71
2022/12/22 11:19:12;;;;;;;2.70;0.50;;;18.60;66.90;;;;;;7431543;19;19996;-72
2022/12/22 11:21:48;;;;;;;2.90;0.50;;;18.60;67.70;;;;;;7413155;19;19922;-72
2022/12/22 11:24:34;;;;;;;1.95;0.52;;;18.70;68.20;;;;;;7391631;19;19922;-72
2022/12/22 11:27:22;;;;;;;3.70;0.70;;;18.80;68.30;;;;;;7390808;19;19915;-72
2022/12/22 11:30:11;;;;;;;3.20;0.80;;;18.80;68.40;;;;;;7433493;19;19918;-72
2022/12/22 11:32:59;;;;;;;1.73;0.50;;;18.90;68.10;;;;;;7433865;19;19926;-72
2022/12/22 11:35:43;;;;;;;2.75;0.80;;;19.00;68.20;;;;;;7433978;19;19922;-70
2022/12/22 11:38:21;;;;;;;3.95;0.40;;;19.10;68.10;;;;;;7434676;19;19918;-68
2022/12/22 11:40:55;;;;;;;3.22;0.65;;;19.10;68.00;;;;;;7410104;19;20362;-68
2022/12/22 11:43:29;;;;;;;2.97;0.50;;;19.20;67.80;;;;;;7406529;19;19927;-69
2022/12/22 11:46:17;;;;;;;2.85;1.00;;;19.30;67.70;;;;;;7432747;19;19933;-69
2022/12/22 11:49:26;;;;;;;2.47;0.60;;;19.40;67.30;;;;;;7434171;19;19974;-69
2022/12/22 11:52:13;;;;;;;2.95;0.82;;;19.50;67.00;;;;;;7373804;19;19922;-70
2022/12/22 11:54:58;;;;;;;2.58;0.60;;;19.60;67.00;;;;;;7108145;19;5011273;-70
2022/12/22 11:57:35;;;;;;;5.22;0.82;;;19.70;66.90;;;;;;7434524;19;19940;-70
2022/12/22 12:00:11;;;;;;;2.25;0.35;;;19.80;66.70;;;;;;7439698;19;19947;-69
2022/12/22 12:03:19;;;;;;;2.90;0.60;;;19.90;66.50;;;;;;7436731;19;19923;-70
2022/12/22 12:06:13;;;;;;;2.60;0.80;;;20.00;66.10;;;;;;7437305;19;20023;-70
2022/12/22 12:08:53;;;;;;;;;;;20.00;66.20;;;;;;7439663;19;20385;-70
2022/12/22 12:11:30;;;;;;;4.80;0.63;;;20.10;65.70;;;;;;7427149;19;19921;-71
2022/12/22 12:14:09;;;;;;;2.85;0.70;;;20.10;66.20;;;;;;7436724;19;20420;-71
2022/12/22 12:16:46;;;;;;;2.13;0.40;;;20.20;66.20;;;;;;7437936;19;19914;-71
2022/12/22 12:19:44;;;;;;;3.15;0.60;;;20.20;66.00;;;;;;7436090;19;19953;-71
2022/12/22 12:22:21;;;;;;;1.63;0.32;;;20.20;65.80;;;;;;7436532;19;19918;-71
2022/12/22 12:25:02;;;;;;;2.83;0.73;;;20.30;65.90;;;;;;7407037;19;19926;-71
2022/12/22 12:27:51;;;;;;;2.95;0.65;;;20.30;65.70;;;;;;7409515;19;19914;-71
2022/12/22 12:30:22;;;;;;;2.85;0.65;;;20.40;65.70;;;;;;7407970;19;19941;-71
2022/12/22 12:32:55;;;;;;;3.35;0.80;;;20.40;65.70;;;;;;7405530;19;20389;-72
2022/12/22 12:35:40;;;;;;;1.90;0.63;;;20.50;65.60;;;;;;7406259;19;20388;-72
2022/12/22 12:38:16;;;;;;;2.00;0.52;;;20.60;65.60;;;;;;7399142;19;20416;-72
2022/12/22 12:40:52;;;;;;;2.15;0.52;;;20.50;65.50;;;;;;7406220;19;19926;-71
2022/12/22 12:43:23;;;;;;;3.22;0.60;;;20.60;65.60;;;;;;7405369;19;19914;-71
2022/12/22 12:45:54;;;;;;;3.13;0.52;;;20.60;65.50;;;;;;7408616;19;19922;-72
2022/12/22 12:48:37;;;;;;;;;;;20.60;65.50;;;;;;7405661;19;19922;-71
2022/12/22 12:51:38;;;;;;;2.28;0.32;;;20.60;65.20;;;;;;7409233;19;19929;-71
2022/12/22 12:54:41;;;;;;;1.75;0.50;;;20.70;65.40;;;;;;7404888;19;19923;-71
2022/12/22 12:57:50;;;;;;;2.08;0.47;;;20.70;65.30;;;;;;7403675;19;19911;-71
2022/12/22 13:00:47;;;;;;;1.70;0.40;;;20.70;65.40;;;;;;7406882;19;19918;-71
2022/12/22 13:03:40;;;;;;;1.67;0.60;;;20.70;65.30;;;;;;7402048;19;20325;-71
2022/12/22 13:06:11;;;;;;;2.25;0.70;;;20.70;65.30;;;;;;7395603;19;19943;-70
2022/12/22 13:09:12;;;;;;;2.10;0.52;;;20.70;65.40;;;;;;7407185;19;20276;-71
2022/12/22 13:11:44;;;;;;;2.80;0.47;;;20.70;65.30;;;;;;7406010;19;20018;-71
2022/12/22 13:14:33;;;;;;;1.63;0.57;;;20.70;65.30;;;;;;7406031;19;20315;-70
2022/12/22 13:17:33;;;;;;;3.22;0.45;;;20.80;65.40;;;;;;7407267;19;20313;-71
2022/12/22 13:20:02;;;;;;;1.77;0.52;;;20.70;65.30;;;;;;7407019;19;20236;-71
2022/12/22 13:22:31;;;;;;;1.85;0.52;;;20.70;65.40;;;;;;7392985;19;19926;-72
2022/12/22 13:25:05;;;;;;;3.00;0.40;;;20.70;65.40;;;;;;7403884;19;20341;-72
2022/12/22 13:27:38;;;;;;;2.97;0.32;;;20.70;65.30;;;;;;7406793;19;20291;-74
2022/12/22 13:30:13;;;;;;;2.78;0.68;;;20.70;65.30;;;;;;7403954;19;20310;-70
2022/12/22 13:32:43;;;;;;;2.03;0.30;;;20.80;65.30;;;;;;7404475;19;19922;-70
2022/12/22 13:35:19;;;;;;;2.63;0.60;;;20.80;65.20;;;;;;7400113;19;19915;-70
2022/12/22 13:37:50;;;;;;;2.45;0.63;;;20.90;65.10;;;;;;7406692;19;19985;-69
2022/12/22 13:40:21;;;;;;;2.65;0.60;;;20.90;65.10;;;;;;7409866;19;19918;-69
2022/12/22 13:42:55;;;;;;;1.92;0.50;;;20.90;65.00;;;;;;7395112;19;19947;-71
2022/12/22 13:45:39;;;;;;;1.70;0.57;;;20.80;65.00;;;;;;7396524;19;20337;-71
2022/12/22 13:48:13;;;;;;;1.55;0.63;;;20.80;65.00;;;;;;7405728;19;19935;-76
2022/12/22 13:50:46;;;;;;;2.38;0.93;;;20.80;65.10;;;;;;7406988;19;19921;-67
2022/12/22 13:53:20;;;;;;;2.08;0.60;;;20.80;65.20;;;;;;7404761;19;19923;-66
2022/12/22 13:55:51;;;;;;;1.40;0.30;;;20.80;65.10;;;;;;7401935;19;20505;-71
2022/12/22 13:58:29;;;;;;;1.73;0.38;;;20.90;65.80;;;;;;7405601;19;20047;-71
2022/12/22 14:01:15;;;;;;;3.00;0.55;;;20.90;66.90;;;;;;7407326;19;19947;-70
2022/12/22 14:03:49;;;;;;;24.20;12.30;;;20.90;69.20;;;;;;7405786;19;19926;-67
2022/12/22 14:06:28;;;;;;;7.18;3.97;;;21.00;70.60;;;;;;7403835;19;19986;-67
2022/12/22 14:09:16;;;;;;;7.50;3.22;;;21.00;71.10;;;;;;7405477;19;19922;-68
2022/12/22 14:11:49;;;;;;;5.47;2.63;;;21.00;70.80;;;;;;7399724;19;19919;-67
2022/12/22 14:14:25;;;;;;;6.53;3.38;;;21.10;70.40;;;;;;7406323;19;19923;-66
2022/12/22 14:16:59;;;;;;;8.15;3.13;;;21.10;70.20;;;;;;7403752;19;20008;-67
2022/12/22 14:19:33;;;;;;;5.88;2.58;;;21.10;70.10;;;;;;7405293;19;19926;-67
2022/12/22 14:22:07;;;;;;;4.40;2.20;;;21.10;70.00;;;;;;7406557;19;19919;-66
2022/12/22 14:24:43;;;;;;;9.90;2.97;;;21.10;69.70;;;;;;7405687;19;19921;-65
2022/12/22 14:27:19;;;;;;;6.45;3.03;;;21.10;69.60;;;;;;7398967;19;20332;-66
2022/12/22 14:29:52;;;;;;;7.25;2.90;;;21.00;69.40;;;;;;7404752;19;19923;-67
2022/12/22 14:32:46;;;;;;;6.13;2.63;;;21.00;69.30;;;;;;7403444;19;19918;-66
2022/12/22 14:35:24;;;;;;;;;;;21.00;69.20;;;;;;7403268;19;19914;-66
2022/12/22 14:37:57;;;;;;;5.82;2.03;;;21.00;69.10;;;;;;7402942;19;19922;-66
2022/12/22 14:40:36;;;;;;;5.05;2.38;;;20.90;69.10;;;;;;7404495;19;19914;-67
2022/12/22 14:43:07;;;;;;;6.25;2.40;;;21.00;69.00;;;;;;7403736;19;19943;-66
2022/12/22 14:45:39;;;;;;;8.18;2.55;;;21.00;68.90;;;;;;7396798;19;19914;-67
2022/12/22 14:48:11;;;;;;;4.97;2.55;;;21.00;68.80;;;;;;7404956;19;19922;-66
2022/12/22 14:50:50;;;;;;;5.68;2.13;;;21.00;68.80;;;;;;7308817;19;19930;-72
2022/12/22 14:53:26;;;;;;;4.88;2.30;;;21.00;68.60;;;;;;7405853;19;19941;-71
2022/12/22 14:55:55;;;;;;;5.07;2.17;;;21.00;68.40;;;;;;7403959;19;19922;-73
2022/12/22 14:58:35;;;;;;;4.32;1.85;;;20.90;68.40;;;;;;7407724;19;19919;-72
2022/12/22 15:01:21;;;;;;;4.80;1.65;;;20.90;68.50;;;;;;7404860;19;19929;-72
2022/12/22 15:04:03;;;;;;;4.85;1.70;;;20.80;68.50;;;;;;7404906;19;19974;-72
2022/12/22 16:12:21;;;;;;;5.15;1.23;;;18.80;69.40;;;;;;7438611;19;20328;-62
2022/12/22 16:14:54;;;;;;;4.75;1.30;;;19.00;67.90;;;;;;7438593;19;19910;-62
2022/12/22 16:17:31;;;;;;;4.65;0.75;;;19.10;69.00;;;;;;7441142;19;19922;-62
2022/12/22 16:20:00;;;;;;;4.07;1.48;;;19.20;69.70;;;;;;7439562;19;19911;-61
2022/12/22 16:22:35;;;;;;;3.70;1.25;;;19.30;70.00;;;;;;7435182;19;19919;-63
2022/12/22 16:25:06;;;;;;;5.10;1.58;;;19.30;70.20;;;;;;7440425;19;19914;-62
2022/12/22 16:27:38;;;;;;;3.45;1.48;;;19.40;70.40;;;;;;7439480;19;19932;-62
2022/12/22 16:30:08;;;;;;;6.32;1.70;;;19.50;70.40;;;;;;7437447;19;19951;-61
2022/12/22 16:32:38;;;;;;;3.58;0.98;;;19.60;70.40;;;;;;7383026;19;19915;-62
2022/12/22 16:35:16;;;;;;;4.68;1.25;;;19.60;70.30;;;;;;7399992;19;19958;-62
2022/12/22 16:37:47;;;;;;;2.85;0.85;;;19.70;70.10;;;;;;7436455;19;19920;-62
2022/12/22 16:40:17;;;;;;;3.83;1.20;;;19.80;70.10;;;;;;7440307;19;19915;-62
2022/12/22 16:42:58;;;;;;;4.93;1.90;;;19.80;69.90;;;;;;7437097;19;19974;-61
2022/12/22 16:45:31;;;;;;;3.42;0.82;;;19.80;69.70;;;;;;7428890;19;19923;-61
2022/12/22 16:48:02;;;;;;;3.58;0.88;;;19.90;69.50;;;;;;7441007;19;19962;-61
2022/12/22 16:50:33;;;;;;;4.07;1.60;;;20.00;69.40;;;;;;7428795;19;19974;-61
2022/12/22 16:53:03;;;;;;;3.05;1.42;;;20.00;69.30;;;;;;7439840;19;20408;-61
2022/12/22 16:55:34;;;;;;;5.35;1.85;;;20.10;69.10;;;;;;7437149;19;19922;-61
2022/12/22 16:58:06;;;;;;;5.15;1.73;;;20.20;69.00;;;;;;7433446;19;20304;-62
2022/12/22 17:00:38;;;;;;;2.53;0.73;;;20.20;68.80;;;;;;7436918;19;19946;-62
2022/12/22 17:03:13;;;;;;;4.15;0.98;;;20.30;68.70;;;;;;7339264;19;19936;-62
2022/12/22 17:05:44;;;;;;;4.68;2.53;;;20.30;68.60;;;;;;7437371;19;20261;-62
2022/12/22 17:08:22;;;;;;;3.20;0.75;;;20.40;68.60;;;;;;7435080;19;20352;-72
2022/12/22 17:10:52;;;;;;;3.42;0.82;;;20.40;68.40;;;;;;7438655;19;20378;-71
2022/12/22 17:13:24;;;;;;;3.88;1.67;;;20.50;68.40;;;;;;7438336;19;20270;-70
2022/12/22 17:15:54;;;;;;;3.22;1.13;;;20.50;68.20;;;;;;7432504;19;19986;-69
2022/12/22 17:18:24;;;;;;;3.17;0.93;;;20.50;68.10;;;;;;7438085;19;19991;-68
2022/12/22 17:20:57;;;;;;;3.72;0.60;;;20.50;68.10;;;;;;7438414;19;20383;-68
2022/12/22 17:23:33;;;;;;;3.10;0.80;;;20.50;68.00;;;;;;7412519;19;19919;-69
2022/12/22 17:26:04;;;;;;;3.85;0.93;;;20.50;68.00;;;;;;7410706;19;20388;-68
2022/12/22 17:28:37;;;;;;;3.13;0.77;;;20.40;67.90;;;;;;7407670;19;20006;-69
2022/12/22 17:31:06;;;;;;;2.95;1.48;;;20.40;67.90;;;;;;7398763;19;19922;-69
2022/12/22 17:33:35;;;;;;;3.17;0.95;;;20.40;68.00;;;;;;7409389;19;19942;-68
2022/12/22 17:36:04;;;;;;;3.30;0.90;;;20.30;67.90;;;;;;7407682;19;20332;-68
2022/12/22 17:38:33;;;;;;;3.88;1.55;;;20.30;68.00;;;;;;7402561;19;19929;-69
2022/12/22 17:41:02;;;;;;;2.85;0.65;;;20.30;68.00;;;;;;7406517;19;20347;-68
2022/12/22 17:43:31;;;;;;;2.75;1.08;;;20.20;67.90;;;;;;7408976;19;19932;-68
2022/12/22 17:46:02;;;;;;;3.38;1.50;;;20.20;67.90;;;;;;7407926;19;19914;-68
2022/12/22 17:48:31;;;;;;;2.97;0.50;;;20.20;68.00;;;;;;7406624;19;19922;-68
2022/12/22 17:51:01;;;;;;;4.32;0.75;;;20.20;68.00;;;;;;7407290;19;19922;-68
2022/12/22 17:53:30;;;;;;;2.88;0.70;;;20.10;68.00;;;;;;7407787;19;19928;-68
2022/12/22 17:56:01;;;;;;;4.78;1.70;;;20.10;68.00;;;;;;7363121;19;19919;-69
2022/12/22 17:58:30;;;;;;;2.72;0.68;;;20.10;68.10;;;;;;7409206;19;20339;-68
2022/12/22 18:01:02;;;;;;;3.80;2.00;;;20.00;68.20;;;;;;7408169;19;19990;-68
2022/12/22 18:03:32;;;;;;;4.40;1.42;;;20.00;68.30;;;;;;7409049;19;19930;-69
2022/12/22 18:06:01;;;;;;;2.30;0.55;;;20.00;68.40;;;;;;7406083;19;20384;-68
2022/12/22 18:08:30;;;;;;;3.58;2.00;;;19.90;68.40;;;;;;7408772;19;19929;-68
2022/12/22 18:11:00;;;;;;;2.15;0.65;;;19.90;68.40;;;;;;7405056;19;19933;-68
2022/12/22 18:13:28;;;;;;;;;;;19.90;68.50;;;;;;7400441;19;19945;-69
2022/12/22 18:15:58;;;;;;;7.10;2.03;;;19.80;68.50;;;;;;7401455;19;19918;-68
2022/12/22 18:18:31;;;;;;;2.97;1.23;;;19.80;68.70;;;;;;7407355;19;19922;-68
2022/12/22 18:21:00;;;;;;;3.15;1.20;;;19.80;68.70;;;;;;7409428;19;19981;-68
2022/12/22 18:23:32;;;;;;;2.67;1.60;;;19.80;68.70;;;;;;7408901;19;19915;-68
2022/12/22 18:26:01;;;;;;;4.43;1.67;;;19.80;68.80;;;;;;7407351;19;20266;-68
2022/12/22 18:28:30;;;;;;;3.78;1.42;;;19.70;68.70;;;;;;7407254;19;19931;-68
2022/12/22 18:30:59;;;;;;;5.22;1.63;;;19.70;68.80;;;;;;7406628;19;19982;-68
2022/12/22 18:33:31;;;;;;;3.67;0.90;;;19.60;68.80;;;;;;7404027;19;19918;-69
2022/12/22 18:36:00;;;;;;;2.80;0.80;;;19.60;68.80;;;;;;7406563;19;19922;-69
2022/12/22 18:38:33;;;;;;;3.10;1.48;;;19.60;68.80;;;;;;7409003;19;19925;-69
2022/12/22 18:41:03;;;;;;;3.97;1.02;;;19.60;68.90;;;;;;7407217;19;19919;-69
2022/12/22 18:43:32;;;;;;;2.58;1.08;;;19.50;68.90;;;;;;7406593;19;19919;-69
2022/12/22 18:46:01;;;;;;;2.38;0.57;;;19.50;68.80;;;;;;7405865;19;19915;-69
2022/12/22 18:48:32;;;;;;;2.20;0.30;;;19.50;68.90;;;;;;7411089;19;19925;-69
2022/12/22 18:51:01;;;;;;;2.55;1.20;;;19.40;68.80;;;;;;7409607;19;20317;-69
2022/12/22 18:53:32;;;;;;;3.17;0.80;;;19.40;68.80;;;;;;7404825;19;19984;-69
2022/12/22 18:56:01;;;;;;;2.55;0.70;;;19.40;68.90;;;;;;7406660;19;19982;-69
2022/12/22 18:58:30;;;;;;;3.30;0.60;;;19.30;68.80;;;;;;7406343;19;19978;-69
2022/12/22 19:00:59;;;;;;;4.30;0.70;;;19.30;68.90;;;;;;7407431;19;19990;-69
2022/12/22 19:03:31;;;;;;;3.95;1.10;;;19.30;68.90;;;;;;7405531;19;19911;-68
2022/12/22 19:06:00;;;;;;;2.50;0.40;;;19.30;68.90;;;;;;7406350;19;19966;-69
2022/12/22 19:08:31;;;;;;;3.25;1.42;;;19.30;68.90;;;;;;7406238;19;19911;-69
2022/12/22 19:11:02;;;;;;;3.42;1.70;;;19.30;68.90;;;;;;7403468;19;19915;-68
2022/12/22 19:13:35;;;;;;;3.53;1.67;;;19.20;68.90;;;;;;7410000;19;19992;-68
2022/12/22 19:16:05;;;;;;;2.78;1.33;;;19.20;68.90;;;;;;7405877;19;19925;-68
2022/12/22 19:18:37;;;;;;;2.10;0.77;;;19.20;68.90;;;;;;7410339;19;19922;-68
2022/12/22 19:21:06;;;;;;;2.65;1.00;;;19.20;68.90;;;;;;7405570;19;19921;-68
2022/12/22 19:23:35;;;;;;;4.88;0.60;;;19.20;69.00;;;;;;7408092;19;20364;-68
2022/12/22 19:26:06;;;;;;;2.90;0.70;;;19.10;68.90;;;;;;7405499;19;19941;-68
2022/12/22 19:28:37;;;;;;;3.00;1.58;;;19.10;69.00;;;;;;7399683;19;19927;-68
2022/12/22 19:31:08;;;;;;;2.40;0.50;;;19.10;68.90;;;;;;7407241;19;19939;-68
2022/12/22 19:33:42;;;;;;;2.80;1.45;;;19.10;68.90;;;;;;7405197;19;20281;-68
2022/12/22 19:36:17;;;;;;;2.25;0.40;;;19.00;69.50;;;;;;7398949;19;19939;-69
2022/12/22 19:38:46;;;;;;;2.33;0.95;;;19.00;68.90;;;;;;7408951;19;19919;-69
2022/12/22 19:41:28;;;;;;;2.70;1.25;;;19.00;69.00;;;;;;7406333;19;19937;-69
2022/12/22 19:43:57;;;;;;;2.50;0.52;;;19.00;69.00;;;;;;7405158;19;19988;-69
2022/12/22 19:46:30;;;;;;;3.25;0.75;;;19.00;69.00;;;;;;7404423;19;19914;-69
2022/12/22 19:49:01;;;;;;;1.92;0.82;;;19.00;69.00;;;;;;7405109;19;19915;-69
2022/12/22 19:51:31;;;;;;;2.03;0.93;;;18.90;69.00;;;;;;7406675;19;19915;-69
2022/12/22 19:54:00;;;;;;;2.35;1.50;;;18.90;69.00;;;;;;7405069;19;19925;-68
2022/12/22 19:56:31;;;;;;;1.90;0.88;;;18.90;69.00;;;;;;7408069;19;19923;-68
2022/12/22 19:59:02;;;;;;;2.10;0.50;;;18.90;69.00;;;;;;7404041;19;19918;-68
2022/12/22 20:01:31;;;;;;;5.80;0.93;;;18.90;69.00;;;;;;7404350;19;19948;-68
2022/12/22 20:04:03;;;;;;;2.53;0.95;;;18.80;69.00;;;;;;7405552;19;20356;-68
2022/12/22 20:06:31;;;;;;;2.65;0.57;;;18.90;69.10;;;;;;7407367;19;19939;-68
2022/12/22 20:09:02;;;;;;;2.30;1.35;;;18.90;69.10;;;;;;7398968;19;19950;-68
2022/12/22 20:11:31;;;;;;;2.53;1.17;;;18.80;69.10;;;;;;7400904;19;20250;-68
2022/12/22 20:14:00;;;;;;;2.13;0.52;;;18.80;69.10;;;;;;7407394;19;19918;-68
2022/12/22 20:16:30;;;;;;;2.25;0.65;;;18.80;69.10;;;;;;7404925;19;19946;-68
2022/12/22 20:19:01;;;;;;;2.83;1.65;;;18.80;69.10;;;;;;7403340;19;19914;-68
2022/12/22 20:21:32;;;;;;;2.38;1.65;;;18.80;69.10;;;;;;7404014;19;19997;-68
2022/12/22 20:24:06;;;;;;;2.10;0.70;;;18.70;69.10;;;;;;7403798;19;19931;-68
2022/12/22 20:26:35;;;;;;;2.03;0.63;;;18.70;69.10;;;;;;7403755;19;19925;-68
2022/12/22 20:29:04;;;;;;;1.60;0.40;;;18.70;69.10;;;;;;7397757;19;19918;-68
2022/12/22 20:31:33;;;;;;;1.83;1.00;;;18.70;69.20;;;;;;7407697;19;19941;-68
2022/12/22 20:34:05;;;;;;;3.33;0.82;;;18.70;69.10;;;;;;7403563;19;19934;-68
2022/12/22 20:36:34;;;;;;;2.05;0.63;;;18.70;69.10;;;;;;7407035;19;19911;-68
2022/12/22 20:39:03;;;;;;;2.78;0.85;;;18.70;69.10;;;;;;7403352;19;19986;-68
2022/12/22 20:41:32;;;;;;;2.55;0.73;;;18.70;69.10;;;;;;7402612;19;19918;-69
2022/12/22 20:44:01;;;;;;;2.97;1.17;;;18.70;69.10;;;;;;7397885;19;20243;-69
2022/12/22 20:46:31;;;;;;;1.42;0.40;;;18.70;69.10;;;;;;7406749;19;19919;-70
2022/12/22 20:49:03;;;;;;;2.67;0.63;;;18.60;69.00;;;;;;7403128;19;19918;-69
2022/12/22 20:51:35;;;;;;;2.33;1.50;;;18.60;69.00;;;;;;7406924;19;19929;-69
2022/12/22 20:54:04;;;;;;;1.98;0.70;;;18.70;69.10;;;;;;7403204;19;19926;-69
2022/12/22 20:56:36;;;;;;;2.40;1.02;;;18.60;69.10;;;;;;7403005;19;19929;-69
2022/12/22 20:59:14;;;;;;;1.85;1.13;;;18.60;69.10;;;;;;7409451;19;19926;-69
2022/12/22 21:01:43;;;;;;;2.25;0.95;;;18.60;69.10;;;;;;7409830;19;20303;-69
2022/12/22 21:04:13;;;;;;;3.55;1.60;;;18.60;69.00;;;;;;7409245;19;20240;-69
2022/12/22 21:06:48;;;;;;;2.47;0.52;;;18.60;69.10;;;;;;7409066;19;19911;-69
2022/12/22 21:09:17;;;;;;;2.10;0.75;;;18.60;69.00;;;;;;7411715;19;19925;-69
2022/12/22 21:11:46;;;;;;;2.35;0.57;;;18.60;69.10;;;;;;7407006;19;19939;-69
2022/12/22 21:14:16;;;;;;;1.55;0.50;;;18.50;69.00;;;;;;7409231;19;19917;-69
2022/12/22 21:16:45;;;;;;;1.45;0.40;;;18.50;69.00;;;;;;7408102;19;19914;-70
2022/12/22 21:19:20;;;;;;;2.08;0.57;;;18.50;69.00;;;;;;7411203;19;19918;-68
2022/12/22 21:21:52;;;;;;;2.20;1.00;;;18.50;69.00;;;;;;7409093;19;20287;-68
2022/12/22 21:24:21;;;;;;;2.00;0.55;;;18.50;69.00;;;;;;7411984;19;20347;-68
2022/12/22 21:26:53;;;;;;;1.90;0.57;;;18.60;69.00;;;;;;7409174;19;19919;-68
2022/12/22 21:29:25;;;;;;;1.95;0.60;;;18.60;69.00;;;;;;7409084;19;19935;-68
2022/12/22 21:31:54;;;;;;;2.45;0.73;;;18.60;68.90;;;;;;7408358;19;19907;-68
2022/12/22 21:34:23;;;;;;;1.80;0.93;;;18.60;68.90;;;;;;7404873;19;19918;-69
2022/12/22 21:37:00;;;;;;;2.47;1.42;;;18.60;68.80;;;;;;7410212;19;19919;-69
2022/12/22 21:39:37;;;;;;;1.70;0.40;;;18.70;68.90;;;;;;7410876;19;19945;-70
2022/12/22 21:42:07;;;;;;;2.40;1.25;;;18.70;68.80;;;;;;7408311;19;19987;-69
2022/12/22 21:44:37;;;;;;;2.42;0.50;;;18.80;68.80;;;;;;7409461;19;19989;-69
2022/12/22 21:47:06;;;;;;;1.30;0.57;;;18.80;68.70;;;;;;7409202;19;19919;-69
2022/12/22 21:49:35;;;;;;;2.78;1.33;;;18.90;68.60;;;;;;7408319;19;19966;-69
2022/12/22 21:52:07;;;;;;;1.65;0.30;;;18.90;68.60;;;;;;7408026;19;19933;-69
2022/12/22 21:54:36;;;;;;;2.90;0.73;;;19.00;68.60;;;;;;7412534;19;19996;-68
2022/12/22 21:57:05;;;;;;;2.35;0.47;;;19.00;68.40;;;;;;7408110;19;20347;-69
2022/12/22 21:59:34;;;;;;;2.35;0.57;;;19.10;68.40;;;;;;7411687;19;19982;-68
2022/12/22 22:02:03;;;;;;;1.50;0.40;;;19.20;68.40;;;;;;7408400;19;19928;-69
2022/12/22 22:04:32;;;;;;;1.90;0.60;;;19.20;68.20;;;;;;7407734;19;20340;-68
2022/12/22 22:07:01;;;;;;;1.10;0.30;;;19.30;68.20;;;;;;7409182;19;20350;-68
2022/12/22 22:09:32;;;;;;;2.30;0.30;;;19.30;68.10;;;;;;7400257;19;19918;-69
2022/12/22 22:14:43;;;;;;;1.67;0.60;;;19.40;68.00;;;;;;7407657;19;19926;-68
2022/12/22 22:17:13;;;;;;;2.10;0.70;;;19.50;67.90;;;;;;7408774;19;20339;-69
2022/12/22 22:19:42;;;;;;;1.60;0.50;;;19.50;67.90;;;;;;7407262;19;19923;-69
2022/12/22 22:22:11;;;;;;;1.95;1.27;;;19.50;67.70;;;;;;7407261;19;19918;-69
2022/12/22 22:24:42;;;;;;;1.50;0.43;;;19.60;67.70;;;;;;7407364;19;19910;-68
2022/12/22 22:27:11;;;;;;;1.45;0.40;;;19.60;67.70;;;;;;7402084;19;19930;-69
2022/12/22 22:29:41;;;;;;;2.50;0.60;;;19.60;67.60;;;;;;7410320;19;19919;-68
2022/12/22 22:32:10;;;;;;;1.55;0.40;;;19.50;67.50;;;;;;7409432;19;20473;-69